Time;durP1;ratioP1;P1;durP2;ratioP2;P2;SDS_P1;SDS_P2;PMS_P1;PMS_P2;Temp;Humidity;BMP_temperature;BMP_pressure;BME280_temperature;BME280_humidity;BME280_pressure;Samples;Min_cycle;Max_cycle;Signal;HPM_P1;HPM_P2
2023/06/03 00:01:47;;;;;;;8.17;3.03;;;;;;;;;;4887299;29;20186;-87
2023/06/03 00:04:52;;;;;;;10.57;3.20;;;;;;;;;;4908975;29;20189;-87
2023/06/03 00:07:55;;;;;;;8.47;3.70;;;;;;;;;;4887693;29;20189;-87
2023/06/03 00:11:00;;;;;;;10.30;3.23;;;;;;;;;;4898579;29;20181;-87
2023/06/03 00:14:05;;;;;;;9.23;3.37;;;;;;;;;;4887654;29;20181;-87
2023/06/03 00:17:11;;;;;;;7.13;3.40;;;;;;;;;;4898317;29;20210;-87
2023/06/03 00:20:16;;;;;;;9.13;3.37;;;;;;;;;;4898404;29;20225;-87
2023/06/03 00:23:20;;;;;;;9.67;3.27;;;;;;;;;;4898071;29;20546;-87
2023/06/03 00:26:25;;;;;;;8.63;3.27;;;;;;;;;;4887686;29;20182;-87
2023/06/03 00:29:34;;;;;;;8.87;3.13;;;;;;;;;;4888083;29;20558;-87
2023/06/03 00:32:38;;;;;;;7.87;3.67;;;;;;;;;;4900232;29;20182;-87
2023/06/03 00:35:42;;;;;;;10.27;4.17;;;;;;;;;;4902170;29;20181;-87
2023/06/03 00:38:47;;;;;;;7.47;3.37;;;;;;;;;;4890911;29;20229;-87
2023/06/03 00:41:51;;;;;;;6.77;3.43;;;;;;;;;;4890713;29;20186;-87
2023/06/03 00:44:55;;;;;;;10.37;3.17;;;;;;;;;;4891124;29;20190;-87
2023/06/03 00:48:01;;;;;;;9.27;3.50;;;;;;;;;;4890760;29;20178;-87
2023/06/03 00:51:06;;;;;;;9.57;3.13;;;;;;;;;;4890969;29;20531;-87
2023/06/03 00:54:10;;;;;;;6.07;3.20;;;;;;;;;;4901526;29;20181;-87
2023/06/03 00:57:15;;;;;;;7.67;3.13;;;;;;;;;;4901532;29;20681;-87
2023/06/03 01:00:20;;;;;;;8.30;3.73;;;;;;;;;;4890579;29;20217;-87
2023/06/03 01:03:24;;;;;;;7.37;2.90;;;;;;;;;;4901288;29;20185;-87
2023/06/03 01:06:48;;;;;;;5.20;3.60;;;;;;;;;;4901324;29;20196;-86
2023/06/03 01:09:59;;;;;;;8.93;2.90;;;;;;;;;;4890308;29;20689;-87
2023/06/03 01:13:27;;;;;;;7.00;3.57;;;;;;;;;;4901204;29;20182;-87
2023/06/03 01:16:34;;;;;;;7.10;3.20;;;;;;;;;;4890220;29;20213;-87
2023/06/03 01:19:49;;;;;;;6.53;3.43;;;;;;;;;;4900922;29;20264;-87
2023/06/03 01:23:23;;;;;;;9.77;3.43;;;;;;;;;;4901573;29;20186;-87
2023/06/03 01:26:28;;;;;;;9.17;3.60;;;;;;;;;;4890029;29;20177;-87
2023/06/03 01:29:33;;;;;;;8.63;3.40;;;;;;;;;;4890208;29;20574;-87
2023/06/03 01:32:40;;;;;;;13.73;3.90;;;;;;;;;;4890680;29;20185;-87
2023/06/03 01:35:53;;;;;;;7.93;3.70;;;;;;;;;;4901418;29;20197;-87
2023/06/03 01:38:57;;;;;;;9.13;3.77;;;;;;;;;;4900892;29;20237;-87
2023/06/03 01:42:02;;;;;;;6.43;3.40;;;;;;;;;;4901240;29;20206;-87
2023/06/03 01:45:07;;;;;;;8.70;4.27;;;;;;;;;;4890102;29;20205;-86
2023/06/03 01:48:11;;;;;;;5.83;2.97;;;;;;;;;;4901374;29;20181;-86
2023/06/03 01:51:15;;;;;;;6.27;3.30;;;;;;;;;;4900901;29;20201;-87
2023/06/03 01:54:25;;;;;;;9.70;3.53;;;;;;;;;;4891321;29;20205;-87
2023/06/03 01:57:30;;;;;;;11.00;3.40;;;;;;;;;;4901296;29;20214;-87
2023/06/03 02:00:34;;;;;;;6.77;3.43;;;;;;;;;;4891522;29;20225;-86
2023/06/03 02:03:38;;;;;;;9.53;2.97;;;;;;;;;;4911577;29;20181;-87
2023/06/03 02:06:58;;;;;;;10.73;3.77;;;;;;;;;;4890296;29;20177;-87
2023/06/03 02:10:03;;;;;;;8.93;3.83;;;;;;;;;;4878804;29;20693;-87
2023/06/03 02:13:08;;;;;;;9.83;3.50;;;;;;;;;;4879101;29;20181;-87
2023/06/03 02:16:13;;;;;;;7.87;3.13;;;;;;;;;;4890085;29;20527;-87
2023/06/03 02:19:20;;;;;;;6.17;3.20;;;;;;;;;;4900256;29;20221;-87
2023/06/03 02:22:26;;;;;;;9.80;3.67;;;;;;;;;;4900512;29;20518;-87
2023/06/03 02:25:30;;;;;;;9.53;3.63;;;;;;;;;;4900015;29;20649;-87
2023/06/03 02:28:35;;;;;;;8.77;3.60;;;;;;;;;;4913531;29;20170;-87
2023/06/03 02:31:39;;;;;;;8.60;4.17;;;;;;;;;;4900382;29;20181;-87
2023/06/03 02:34:45;;;;;;;10.57;4.30;;;;;;;;;;4889420;29;20182;-87
2023/06/03 02:37:50;;;;;;;7.97;3.53;;;;;;;;;;4900056;29;20570;-87
2023/06/03 02:40:56;;;;;;;10.20;3.70;;;;;;;;;;4899887;29;20221;-87
2023/06/03 02:44:00;;;;;;;10.43;3.90;;;;;;;;;;4910642;29;20185;-87
2023/06/03 02:47:04;;;;;;;9.67;4.10;;;;;;;;;;4899993;29;20201;-87
2023/06/03 02:50:08;;;;;;;9.00;4.10;;;;;;;;;;4910935;29;20221;-87
2023/06/03 02:53:13;;;;;;;10.93;3.70;;;;;;;;;;4900342;29;20527;-87
2023/06/03 02:56:17;;;;;;;7.20;3.60;;;;;;;;;;4890510;29;20185;-87
2023/06/03 02:59:21;;;;;;;7.90;3.63;;;;;;;;;;4910960;29;20225;-87
2023/06/03 03:02:26;;;;;;;9.77;4.00;;;;;;;;;;4889844;29;20182;-87
2023/06/03 03:05:32;;;;;;;13.27;3.90;;;;;;;;;;4900310;29;20177;-86
2023/06/03 03:08:37;;;;;;;6.93;3.87;;;;;;;;;;4899956;29;20570;-87
2023/06/03 03:11:41;;;;;;;10.03;4.00;;;;;;;;;;4888939;29;20201;-87
2023/06/03 03:14:45;;;;;;;7.37;4.43;;;;;;;;;;4888766;29;20193;-87
2023/06/03 03:17:49;;;;;;;13.10;3.83;;;;;;;;;;4910337;29;20673;-87
2023/06/03 03:20:53;;;;;;;9.10;3.70;;;;;;;;;;4899583;29;20189;-87
2023/06/03 03:23:58;;;;;;;11.60;4.07;;;;;;;;;;4899985;29;20186;-86
2023/06/03 03:27:03;;;;;;;8.13;4.10;;;;;;;;;;4877990;29;20178;-87
2023/06/03 03:30:10;;;;;;;6.53;3.63;;;;;;;;;;4878264;29;20221;-87
2023/06/03 03:33:17;;;;;;;7.87;3.27;;;;;;;;;;4889110;29;20186;-86
2023/06/03 03:36:22;;;;;;;9.57;3.87;;;;;;;;;;4899184;29;20641;-87
2023/06/03 03:39:27;;;;;;;6.37;3.53;;;;;;;;;;4898995;29;20586;-87
2023/06/03 03:42:32;;;;;;;9.70;3.90;;;;;;;;;;4899240;29;20177;-86
2023/06/03 03:45:38;;;;;;;10.43;4.30;;;;;;;;;;4888836;29;20190;-87
2023/06/03 03:48:48;;;;;;;6.63;3.80;;;;;;;;;;4889066;29;20558;-87
2023/06/03 03:51:52;;;;;;;7.93;4.30;;;;;;;;;;4888257;29;20197;-87
2023/06/03 03:55:01;;;;;;;11.53;4.17;;;;;;;;;;4910125;29;20205;-87
2023/06/03 03:58:37;;;;;;;10.17;4.10;;;;;;;;;;4909696;29;20218;-87
2023/06/03 04:01:43;;;;;;;15.07;3.80;;;;;;;;;;4910661;29;20676;-87
2023/06/03 04:04:55;;;;;;;9.53;3.70;;;;;;;;;;4899880;29;20634;-87
2023/06/03 04:07:59;;;;;;;10.33;4.20;;;;;;;;;;4958026;23;20246;-82
2023/06/03 04:11:05;;;;;;;9.60;4.27;;;;;;;;;;4957050;28;20183;-82
2023/06/03 04:14:11;;;;;;;11.50;4.43;;;;;;;;;;4956285;28;20187;-82
2023/06/03 04:17:20;;;;;;;7.87;4.13;;;;;;;;;;4956323;28;20226;-82
2023/06/03 04:20:38;;;;;;;14.33;4.83;;;;;;;;;;4955899;28;20183;-82
2023/06/03 04:23:42;;;;;;;6.43;3.80;;;;;;;;;;4967055;28;20515;-85
2023/06/03 04:26:47;;;;;;;7.27;3.73;;;;;;;;;;4956161;28;20214;-84
2023/06/03 04:29:51;;;;;;;7.60;3.80;;;;;;;;;;4955690;28;20175;-84
2023/06/03 04:32:55;;;;;;;6.33;3.77;;;;;;;;;;4955193;28;20198;-84
2023/06/03 04:36:04;;;;;;;6.63;3.53;;;;;;;;;;4955666;28;20191;-84
2023/06/03 04:39:10;;;;;;;6.97;3.23;;;;;;;;;;4944654;28;20218;-84
2023/06/03 04:42:17;;;;;;;5.70;3.17;;;;;;;;;;4955888;28;20175;-84
2023/06/03 04:45:23;;;;;;;7.27;3.73;;;;;;;;;;4966630;28;20641;-84
2023/06/03 04:48:30;;;;;;;9.33;3.87;;;;;;;;;;4945832;28;20207;-84
2023/06/03 04:51:34;;;;;;;7.47;3.53;;;;;;;;;;4955729;28;20194;-84
2023/06/03 04:54:42;;;;;;;5.40;3.80;;;;;;;;;;4946158;28;20183;-84
2023/06/03 04:57:50;;;;;;;7.90;3.80;;;;;;;;;;4965922;28;20701;-84
2023/06/03 05:00:55;;;;;;;12.80;3.93;;;;;;;;;;4966505;28;20206;-84
2023/06/03 05:04:00;;;;;;;8.47;3.73;;;;;;;;;;4955432;28;20183;-85
2023/06/03 05:07:04;;;;;;;6.80;3.57;;;;;;;;;;4944408;28;20705;-85
2023/06/03 05:10:09;;;;;;;6.37;3.50;;;;;;;;;;4944665;28;20187;-85
2023/06/03 05:13:14;;;;;;;6.97;3.67;;;;;;;;;;4955481;28;20183;-86
2023/06/03 05:16:19;;;;;;;9.37;3.73;;;;;;;;;;4956070;28;20186;-85
2023/06/03 05:19:25;;;;;;;10.63;3.80;;;;;;;;;;4955419;28;20207;-84
2023/06/03 05:22:32;;;;;;;7.43;3.97;;;;;;;;;;4955032;28;20194;-83
2023/06/03 05:25:49;;;;;;;13.13;4.60;;;;;;;;;;4955776;28;20183;-83
2023/06/03 05:29:16;;;;;;;9.07;3.93;;;;;;;;;;4957118;28;20183;-83
2023/06/03 05:33:09;;;;;;;7.50;3.80;;;;;;;;;;4958731;28;20191;-83
2023/06/03 05:36:46;;;;;;;9.50;3.70;;;;;;;;;;4967635;28;20523;-83
2023/06/03 05:40:18;;;;;;;9.30;3.87;;;;;;;;;;4966191;28;20535;-84
2023/06/03 05:43:24;;;;;;;10.73;4.20;;;;;;;;;;4954882;28;20187;-83
2023/06/03 05:46:32;;;;;;;8.47;4.33;;;;;;;;;;4952824;23;20535;-71
2023/06/03 05:49:37;;;;;;;10.00;4.73;;;;;;;;;;4983831;28;20179;-71
2023/06/03 05:52:41;;;;;;;9.30;3.87;;;;;;;;;;4953666;28;20198;-71
2023/06/03 05:55:45;;;;;;;10.63;3.90;;;;;;;;;;4964446;28;20194;-71
2023/06/03 05:58:49;;;;;;;9.87;5.00;;;;;;;;;;4964477;28;20206;-70
2023/06/03 06:01:55;;;;;;;8.87;3.97;;;;;;;;;;4964591;28;20223;-70
2023/06/03 06:04:59;;;;;;;9.00;3.90;;;;;;;;;;4964709;28;20207;-70
2023/06/03 06:08:03;;;;;;;17.83;10.93;;;;;;;;;;4976617;28;20617;-71
2023/06/03 06:11:07;;;;;;;7.40;4.20;;;;;;;;;;4953447;28;20724;-71
2023/06/03 06:14:12;;;;;;;10.60;4.30;;;;;;;;;;4964328;28;20178;-71
2023/06/03 06:17:20;;;;;;;9.20;4.33;;;;;;;;;;4953212;28;20179;-71
2023/06/03 06:20:25;;;;;;;10.03;4.10;;;;;;;;;;4963974;28;20187;-71
2023/06/03 06:23:30;;;;;;;14.27;5.07;;;;;;;;;;4952980;28;20539;-71
2023/06/03 06:26:35;;;;;;;8.27;4.50;;;;;;;;;;4952588;28;20199;-71
2023/06/03 06:29:39;;;;;;;9.70;4.70;;;;;;;;;;4962978;28;20175;-71
2023/06/03 06:32:49;;;;;;;10.20;4.23;;;;;;;;;;4941812;28;20175;-71
2023/06/03 06:35:55;;;;;;;8.80;4.20;;;;;;;;;;4963969;28;20190;-71
2023/06/03 06:39:00;;;;;;;11.70;4.37;;;;;;;;;;4963639;28;20226;-71
2023/06/03 06:42:10;;;;;;;9.90;4.67;;;;;;;;;;4963756;28;20728;-70
2023/06/03 06:45:20;;;;;;;10.20;3.70;;;;;;;;;;4964106;28;20187;-70
2023/06/03 06:48:25;;;;;;;8.60;4.23;;;;;;;;;;4963290;28;20216;-71
2023/06/03 06:51:36;;;;;;;7.47;4.33;;;;;;;;;;4963450;28;20222;-70
2023/06/03 06:54:41;;;;;;;9.27;4.30;;;;;;;;;;4952208;28;20198;-71
2023/06/03 06:57:46;;;;;;;8.97;4.63;;;;;;;;;;4963219;28;20183;-71
2023/06/03 07:00:50;;;;;;;11.37;4.60;;;;;;;;;;4963151;28;20700;-71
2023/06/03 07:03:55;;;;;;;7.07;4.50;;;;;;;;;;4963377;28;20179;-71
2023/06/03 07:06:59;;;;;;;11.37;4.33;;;;;;;;;;4963342;28;20630;-71
2023/06/03 07:10:05;;;;;;;7.53;3.87;;;;;;;;;;4963889;28;20515;-70
2023/06/03 07:13:13;;;;;;;12.93;5.13;;;;;;;;;;4952140;28;20182;-71
2023/06/03 07:16:17;;;;;;;5.37;4.10;;;;;;;;;;4962832;28;20183;-71
2023/06/03 07:19:22;;;;;;;11.03;4.70;;;;;;;;;;4951543;28;20210;-71
2023/06/03 07:22:28;;;;;;;10.40;5.03;;;;;;;;;;4962915;28;20214;-71
2023/06/03 07:25:40;;;;;;;8.07;4.60;;;;;;;;;;4952057;28;20182;-71
2023/06/03 07:28:49;;;;;;;9.40;4.23;;;;;;;;;;4962790;28;20175;-71
2023/06/03 07:31:54;;;;;;;12.33;4.73;;;;;;;;;;4962818;28;20218;-71
2023/06/03 07:34:58;;;;;;;8.63;4.23;;;;;;;;;;4963033;28;20626;-71
2023/06/03 07:38:04;;;;;;;5.60;4.10;;;;;;;;;;4962904;28;20187;-71
2023/06/03 07:41:09;;;;;;;8.47;4.30;;;;;;;;;;4976788;28;20218;-71
2023/06/03 07:44:25;;;;;;;5.87;3.90;;;;;;;;;;4958054;28;20183;-71
2023/06/03 07:47:30;;;;;;;20.23;5.40;;;;;;;;;;4981258;28;20203;-71
2023/06/03 07:50:34;;;;;;;6.60;3.93;;;;;;;;;;4981597;28;20811;-70
2023/06/03 07:53:39;;;;;;;8.63;4.13;;;;;;;;;;4969492;28;20191;-71
2023/06/03 07:56:44;;;;;;;7.60;4.40;;;;;;;;;;4981365;28;20190;-71
2023/06/03 07:59:53;;;;;;;6.27;3.80;;;;;;;;;;4981066;28;20211;-71
2023/06/03 08:02:59;;;;;;;10.63;4.00;;;;;;;;;;4981378;28;20186;-71
2023/06/03 08:06:06;;;;;;;6.97;3.97;;;;;;;;;;4968911;28;20182;-71
2023/06/03 08:09:37;;;;;;;7.10;3.80;;;;;;;;;;4980846;28;20198;-71
2023/06/03 08:12:43;;;;;;;10.13;4.27;;;;;;;;;;4968802;28;20183;-71
2023/06/03 08:15:48;;;;;;;11.67;3.97;;;;;;;;;;4969414;28;20515;-71
2023/06/03 08:18:54;;;;;;;7.23;3.73;;;;;;;;;;4968747;28;20551;-71
2023/06/03 08:21:58;;;;;;;7.27;4.20;;;;;;;;;;4969299;28;20221;-71
2023/06/03 08:25:03;;;;;;;6.40;3.90;;;;;;;;;;4981110;28;20178;-71
2023/06/03 08:28:07;;;;;;;5.33;3.80;;;;;;;;;;4981166;28;20188;-71
2023/06/03 08:31:13;;;;;;;10.23;4.17;;;;;;;;;;4980706;28;20567;-71
2023/06/03 08:34:17;;;;;;;5.93;3.55;;;;;;;;;;4980799;28;20523;-71
2023/06/03 08:37:21;;;;;;;10.27;4.32;;;;;;;;;;4946956;28;20184;-71
2023/06/03 08:40:26;;;;;;;8.40;4.05;;;;;;;;;;4958118;28;20221;-71
2023/06/03 08:43:56;;;;;;;5.68;3.58;;;;;;;;;;4957846;28;20187;-71
2023/06/03 08:47:16;;;;;;;7.43;3.92;;;;;;;;;;4968640;28;20212;-70
2023/06/03 08:50:24;;;;;;;10.88;3.75;;;;;;;;;;4981050;28;20186;-71
2023/06/03 08:53:33;;;;;;;9.75;4.07;;;;;;;;;;4966519;28;20184;-71
2023/06/03 08:56:42;;;;;;;7.50;3.65;;;;;;;;;;4977755;28;20188;-71
2023/06/03 08:59:52;;;;;;;8.38;3.90;;;;;;;;;;4977781;28;20214;-70
2023/06/03 09:02:56;;;;;;;10.27;3.70;;;;;;;;;;4977578;28;20183;-70
2023/06/03 09:06:01;;;;;;;9.35;4.30;;;;;;;;;;4977695;28;20656;-70
2023/06/03 09:09:08;;;;;;;9.65;4.10;;;;;;;;;;4977206;28;20175;-71
2023/06/03 09:12:12;;;;;;;9.90;3.67;;;;;;;;;;4977208;28;20701;-70
2023/06/03 09:15:16;;;;;;;7.35;3.78;;;;;;;;;;4977318;28;20527;-71
2023/06/03 09:18:20;;;;;;;6.60;3.50;;;;;;;;;;4965442;28;20182;-70
2023/06/03 09:21:25;;;;;;;7.68;3.83;;;;;;;;;;4977264;28;20220;-70
2023/06/03 09:24:29;;;;;;;8.70;4.28;;;;;;;;;;4965726;28;20508;-70
2023/06/03 09:27:34;;;;;;;22.60;4.68;;;;;;;;;;4977331;28;20205;-70
2023/06/03 09:30:38;;;;;;;6.20;4.38;;;;;;;;;;4976664;28;20217;-70
2023/06/03 09:33:42;;;;;;;9.55;4.03;;;;;;;;;;4965275;28;20551;-71
2023/06/03 09:36:49;;;;;;;7.80;3.80;;;;;;;;;;4964756;28;20649;-70
2023/06/03 09:39:53;;;;;;;6.63;3.90;;;;;;;;;;4977000;28;20207;-70
2023/06/03 09:42:58;;;;;;;5.13;3.78;;;;;;;;;;4976476;28;20190;-71
2023/06/03 09:46:09;;;;;;;10.23;4.00;;;;;;;;;;4953988;28;20182;-72
2023/06/03 09:49:16;;;;;;;8.57;3.97;;;;;;;;;;4976552;28;20174;-71
2023/06/03 09:52:34;;;;;;;8.45;3.78;;;;;;;;;;4976673;28;20222;-70
2023/06/03 09:55:38;;;;;;;5.60;3.67;;;;;;;;;;4964405;28;20657;-70
2023/06/03 09:58:42;;;;;;;6.95;3.72;;;;;;;;;;4976377;28;20185;-70
2023/06/03 10:01:48;;;;;;;11.32;4.07;;;;;;;;;;4976244;28;20215;-70
2023/06/03 10:04:52;;;;;;;5.80;3.38;;;;;;;;;;4963517;28;20179;-70
2023/06/03 10:07:57;;;;;;;6.57;3.75;;;;;;;;;;4999516;22;20240;-72
2023/06/03 10:11:01;;;;;;;30.77;5.32;;;;;;;;;;4995054;28;20564;-72
2023/06/03 10:14:06;;;;;;;8.45;4.00;;;;;;;;;;4995125;28;20190;-72
2023/06/03 10:17:11;;;;;;;5.32;3.65;;;;;;;;;;4995356;28;20193;-72
2023/06/03 10:20:35;;;;;;;13.27;3.92;;;;;;;;;;4995397;28;20677;-72
2023/06/03 10:23:41;;;;;;;6.18;3.70;;;;;;;;;;4995178;28;20187;-72
2023/06/03 10:26:45;;;;;;;9.10;3.90;;;;;;;;;;4994967;28;20179;-72
2023/06/03 10:29:55;;;;;;;5.25;3.70;;;;;;;;;;4983376;28;20181;-72
2023/06/03 10:33:04;;;;;;;6.25;3.47;;;;;;;;;;4983275;28;20533;-72
2023/06/03 10:36:09;;;;;;;20.08;4.50;;;;;;;;;;4994979;28;20630;-72
2023/06/03 10:39:13;;;;;;;8.48;4.07;;;;;;;;;;4982871;28;20210;-72
2023/06/03 10:42:18;;;;;;;8.10;3.72;;;;;;;;;;4994864;28;20218;-72
2023/06/03 10:45:23;;;;;;;7.45;3.80;;;;;;;;;;4982632;28;20196;-72
2023/06/03 10:48:29;;;;;;;5.00;3.38;;;;;;;;;;4994445;28;20193;-72
2023/06/03 10:51:55;;;;;;;5.97;3.60;;;;;;;;;;4994297;28;20557;-72
2023/06/03 10:55:20;;;;;;;5.50;3.22;;;;;;;;;;4994973;28;20187;-72
2023/06/03 10:58:28;;;;;;;10.63;3.70;;;;;;;;;;4994362;28;20184;-72
2023/06/03 11:01:56;;;;;;;9.20;3.80;;;;;;;;;;4982248;28;20218;-72
2023/06/03 11:05:22;;;;;;;6.68;3.63;;;;;;;;;;4994756;28;20189;-72
2023/06/03 11:09:05;;;;;;;5.57;3.70;;;;;;;;;;4994393;28;20682;-72
2023/06/03 11:12:13;;;;;;;15.68;4.75;;;;;;;;;;4994241;28;20224;-72
2023/06/03 11:15:18;;;;;;;8.27;3.80;;;;;;;;;;4994224;28;20184;-72
2023/06/03 11:18:21;;;;;;;4.88;3.50;;;;;;;;;;4982230;28;20189;-72
2023/06/03 11:21:48;;;;;;;10.88;3.90;;;;;;;;;;4993881;28;20212;-72
2023/06/03 11:24:52;;;;;;;6.70;4.07;;;;;;;;;;4994222;28;20190;-72
2023/06/03 11:28:41;;;;;;;8.80;4.13;;;;;;;;;;4994217;28;20180;-72
2023/06/03 11:31:46;;;;;;;7.70;3.55;;;;;;;;;;4993812;28;20220;-71
2023/06/03 11:35:11;;;;;;;6.57;3.60;;;;;;;;;;4982083;28;20671;-71
2023/06/03 11:38:15;;;;;;;6.47;3.85;;;;;;;;;;4982096;28;20188;-72
2023/06/03 11:42:06;;;;;;;11.00;3.70;;;;;;;;;;4993780;28;20231;-71
2023/06/03 11:45:16;;;;;;;9.77;3.72;;;;;;;;;;4970949;28;20187;-71
2023/06/03 11:48:29;;;;;;;5.53;3.25;;;;;;;;;;4993863;28;20201;-71
2023/06/03 11:51:35;;;;;;;7.72;3.50;;;;;;;;;;4993802;28;20212;-71
2023/06/03 11:54:45;;;;;;;5.72;3.28;;;;;;;;;;4982101;28;20174;-72
2023/06/03 11:57:49;;;;;;;6.95;3.50;;;;;;;;;;4982101;28;20198;-72
2023/06/03 12:01:19;;;;;;;5.72;3.38;;;;;;;;;;4993402;28;20604;-71
2023/06/03 12:04:24;;;;;;;11.73;3.88;;;;;;;;;;4993687;28;20185;-71
2023/06/03 12:07:29;;;;;;;7.80;3.78;;;;;;;;;;4993501;28;20206;-71
2023/06/03 12:10:40;;;;;;;5.00;3.40;;;;;;;;;;4993729;28;20181;-71
2023/06/03 12:13:44;;;;;;;4.88;3.42;;;;;;;;;;4993470;28;20191;-71
2023/06/03 12:16:50;;;;;;;6.97;3.85;;;;;;;;;;4993587;28;20629;-71
2023/06/03 12:19:54;;;;;;;8.95;3.65;;;;;;;;;;4981831;28;20576;-71
2023/06/03 12:23:03;;;;;;;5.03;3.28;;;;;;;;;;4981680;28;20186;-72
2023/06/03 12:26:08;;;;;;;5.50;3.60;;;;;;;;;;4993606;28;20640;-72
2023/06/03 12:29:14;;;;;;;9.73;3.17;;;;;;;;;;4983657;28;20193;-72
2023/06/03 12:32:18;;;;;;;7.85;3.38;;;;;;;;;;4997244;28;20221;-72
2023/06/03 12:35:27;;;;;;;9.88;3.85;;;;;;;;;;4985114;28;20635;-72
2023/06/03 12:38:31;;;;;;;21.63;4.75;;;;;;;;;;4996937;28;20557;-72
2023/06/03 12:41:36;;;;;;;10.15;3.70;;;;;;;;;;4996701;28;20230;-72
2023/06/03 12:44:44;;;;;;;27.52;4.80;;;;;;;;;;4996652;28;20174;-71
2023/06/03 12:47:48;;;;;;;10.05;3.47;;;;;;;;;;4996844;28;20177;-72
2023/06/03 12:50:54;;;;;;;6.00;3.33;;;;;;;;;;4996549;28;20212;-72
2023/06/03 12:53:58;;;;;;;6.22;3.30;;;;;;;;;;4984529;28;20517;-72
2023/06/03 12:57:03;;;;;;;6.53;4.00;;;;;;;;;;4996796;28;20186;-71
2023/06/03 13:00:09;;;;;;;5.55;3.22;;;;;;;;;;4996712;28;20207;-72
2023/06/03 13:03:13;;;;;;;5.28;3.13;;;;;;;;;;4996486;28;20184;-71
2023/06/03 13:06:18;;;;;;;5.45;3.03;;;;;;;;;;4996266;28;20183;-72
2023/06/03 13:09:22;;;;;;;4.22;3.13;;;;;;;;;;4996288;28;20185;-72
2023/06/03 13:12:28;;;;;;;6.65;3.72;;;;;;;;;;4996331;28;20212;-71
2023/06/03 13:15:33;;;;;;;6.72;3.38;;;;;;;;;;4996528;28;20185;-71
2023/06/03 13:18:37;;;;;;;6.45;3.67;;;;;;;;;;4984470;28;20176;-71
2023/06/03 13:21:40;;;;;;;4.70;3.25;;;;;;;;;;4995897;28;20225;-72
2023/06/03 13:24:45;;;;;;;4.90;3.53;;;;;;;;;;4984272;28;20190;-72
2023/06/03 13:27:49;;;;;;;8.25;3.72;;;;;;;;;;4996154;28;20190;-72
2023/06/03 13:30:53;;;;;;;9.85;3.65;;;;;;;;;;4995910;28;20221;-72
2023/06/03 13:33:57;;;;;;;7.55;4.00;;;;;;;;;;4996105;28;20200;-72
2023/06/03 13:37:01;;;;;;;8.35;3.22;;;;;;;;;;4995999;28;20186;-72
2023/06/03 13:40:07;;;;;;;8.02;3.35;;;;;;;;;;4983886;28;20207;-72
2023/06/03 13:43:11;;;;;;;5.82;3.40;;;;;;;;;;4996237;28;20195;-72
2023/06/03 13:46:15;;;;;;;5.78;3.42;;;;;;;;;;4995618;28;20208;-72
2023/06/03 13:49:20;;;;;;;6.80;3.65;;;;;;;;;;4995638;28;20178;-72
2023/06/03 13:52:24;;;;;;;6.43;3.63;;;;;;;;;;4995724;28;20214;-71
2023/06/03 13:55:28;;;;;;;6.65;3.67;;;;;;;;;;4995617;28;20200;-71
2023/06/03 13:58:32;;;;;;;4.35;3.60;;;;;;;;;;4995590;28;20205;-71
2023/06/03 14:01:37;;;;;;;6.32;3.45;;;;;;;;;;4995622;28;20224;-72
2023/06/03 14:04:42;;;;;;;7.07;3.33;;;;;;;;;;4983622;28;20636;-72
2023/06/03 14:07:50;;;;;;;8.07;3.75;;;;;;;;;;4995479;28;20213;-72
2023/06/03 14:10:54;;;;;;;8.48;3.65;;;;;;;;;;4995332;28;20225;-72
2023/06/03 14:13:58;;;;;;;6.18;3.22;;;;;;;;;;4994795;28;20182;-71
2023/06/03 14:17:03;;;;;;;6.97;3.35;;;;;;;;;;4995273;28;20191;-72
2023/06/03 14:20:08;;;;;;;3.22;2.88;;;;;;;;;;4994770;28;20213;-72
2023/06/03 14:23:13;;;;;;;4.72;3.05;;;;;;;;;;4982644;28;20198;-72
2023/06/03 14:26:17;;;;;;;7.38;3.70;;;;;;;;;;4994623;28;20183;-72
2023/06/03 14:29:22;;;;;;;9.23;4.03;;;;;;;;;;4982760;28;20190;-72
2023/06/03 14:32:25;;;;;;;5.45;3.22;;;;;;;;;;4971811;28;20215;-72
2023/06/03 14:35:30;;;;;;;8.73;3.83;;;;;;;;;;4995004;28;20184;-72
2023/06/03 14:38:34;;;;;;;6.30;3.40;;;;;;;;;;4982694;28;20542;-72
2023/06/03 14:41:38;;;;;;;7.80;3.60;;;;;;;;;;4994722;28;20236;-72
2023/06/03 14:44:42;;;;;;;5.80;3.30;;;;;;;;;;4971409;28;20182;-72
2023/06/03 14:47:46;;;;;;;6.22;3.30;;;;;;;;;;4994748;28;20183;-72
2023/06/03 14:50:51;;;;;;;7.03;2.97;;;;;;;;;;4993940;28;20214;-72
2023/06/03 14:53:56;;;;;;;6.95;3.28;;;;;;;;;;4994668;28;20190;-72
2023/06/03 14:56:59;;;;;;;6.40;3.10;;;;;;;;;;4994568;28;20182;-72
2023/06/03 15:00:04;;;;;;;7.30;3.70;;;;;;;;;;4994767;28;20181;-72
2023/06/03 15:03:10;;;;;;;4.55;3.30;;;;;;;;;;4994617;28;20190;-72
2023/06/03 15:06:14;;;;;;;6.15;3.88;;;;;;;;;;4994461;28;20184;-72
2023/06/03 15:09:18;;;;;;;7.65;3.60;;;;;;;;;;4994686;28;20562;-72
2023/06/03 15:12:22;;;;;;;5.40;2.90;;;;;;;;;;4994268;28;20224;-72
2023/06/03 15:15:26;;;;;;;5.13;3.30;;;;;;;;;;4994039;28;20186;-72
2023/06/03 15:18:30;;;;;;;9.50;3.50;;;;;;;;;;4982049;28;20183;-72
2023/06/03 15:21:38;;;;;;;5.82;3.47;;;;;;;;;;4970997;28;20234;-72
2023/06/03 15:24:43;;;;;;;17.42;4.18;;;;;;;;;;4988479;28;20540;-72
2023/06/03 15:27:47;;;;;;;5.45;3.53;;;;;;;;;;4980446;28;20192;-72
2023/06/03 15:30:51;;;;;;;4.88;3.40;;;;;;;;;;4989625;28;20224;-72
2023/06/03 15:33:55;;;;;;;5.95;3.70;;;;;;;;;;4993852;28;20654;-72
2023/06/03 15:37:02;;;;;;;6.18;3.97;;;;;;;;;;4993922;28;20205;-71
2023/06/03 15:40:07;;;;;;;6.80;3.78;;;;;;;;;;4993719;28;20197;-72
2023/06/03 15:43:11;;;;;;;6.75;4.03;;;;;;;;;;4993689;28;20180;-72
2023/06/03 15:46:15;;;;;;;8.70;3.92;;;;;;;;;;4993726;28;20189;-72
2023/06/03 15:49:19;;;;;;;6.22;4.32;;;;;;;;;;4993669;28;20187;-72
2023/06/03 15:52:23;;;;;;;7.32;3.72;;;;;;;;;;4993569;28;20698;-72
2023/06/03 15:55:27;;;;;;;7.68;4.10;;;;;;;;;;4993518;28;20200;-73
2023/06/03 15:58:32;;;;;;;11.50;4.38;;;;;;;;;;4993815;28;20186;-72
2023/06/03 16:01:36;;;;;;;11.32;3.58;;;;;;;;;;4981678;28;20220;-72
2023/06/03 16:04:40;;;;;;;4.95;3.92;;;;;;;;;;4997740;28;20181;-72
2023/06/03 16:07:44;;;;;;;5.80;3.65;;;;;;;;;;4997422;28;20210;-72
2023/06/03 16:10:49;;;;;;;8.07;3.85;;;;;;;;;;4985169;28;20211;-72
2023/06/03 16:13:53;;;;;;;9.60;4.15;;;;;;;;;;4997805;28;20205;-71
2023/06/03 16:16:57;;;;;;;4.37;3.77;;;;;;;;;;4997924;28;20176;-71
2023/06/03 16:20:02;;;;;;;8.27;3.90;;;;;;;;;;4997238;28;20188;-71
2023/06/03 16:23:06;;;;;;;8.07;4.20;;;;;;;;;;4985488;28;20171;-71
2023/06/03 16:26:10;;;;;;;5.50;3.80;;;;;;;;;;4997089;28;20522;-72
2023/06/03 16:29:14;;;;;;;9.97;4.50;;;;;;;;;;4985124;28;20206;-72
2023/06/03 16:32:18;;;;;;;9.60;4.20;;;;;;;;;;4996488;28;20224;-72
2023/06/03 16:35:22;;;;;;;7.80;3.93;;;;;;;;;;4996596;28;20179;-72
2023/06/03 16:38:27;;;;;;;14.47;4.60;;;;;;;;;;4984822;28;20643;-72
2023/06/03 16:41:31;;;;;;;13.63;4.70;;;;;;;;;;4996769;28;20688;-72
2023/06/03 16:44:35;;;;;;;8.13;3.63;;;;;;;;;;4973861;28;20601;-71
2023/06/03 16:47:39;;;;;;;9.03;3.90;;;;;;;;;;4996559;28;20189;-72
2023/06/03 16:50:43;;;;;;;9.97;5.00;;;;;;;;;;4997084;28;20218;-71
2023/06/03 16:53:47;;;;;;;7.00;4.13;;;;;;;;;;4997266;28;20632;-71
2023/06/03 16:56:51;;;;;;;9.80;4.93;;;;;;;;;;4996566;28;20186;-72
2023/06/03 16:59:56;;;;;;;10.63;5.87;;;;;;;;;;4996763;28;20654;-72
2023/06/03 17:03:00;;;;;;;9.83;5.33;;;;;;;;;;4996414;28;20191;-72
2023/06/03 17:06:04;;;;;;;25.67;8.80;;;;;;;;;;4984378;28;20536;-72
2023/06/03 17:09:10;;;;;;;8.53;4.80;;;;;;;;;;4984502;28;20206;-72
2023/06/03 17:12:15;;;;;;;9.93;5.90;;;;;;;;;;4996199;28;20567;-72
2023/06/03 17:15:19;;;;;;;7.33;4.00;;;;;;;;;;4995461;28;20194;-71
2023/06/03 17:18:23;;;;;;;6.87;4.50;;;;;;;;;;4996304;28;20199;-71
2023/06/03 17:21:27;;;;;;;6.13;4.17;;;;;;;;;;4996154;28;20217;-71
2023/06/03 17:24:31;;;;;;;11.77;4.33;;;;;;;;;;4996065;28;20187;-71
2023/06/03 17:27:35;;;;;;;6.73;4.40;;;;;;;;;;4996093;28;20182;-72
2023/06/03 17:30:39;;;;;;;5.63;4.00;;;;;;;;;;4996413;28;20221;-72
2023/06/03 17:33:46;;;;;;;32.70;6.10;;;;;;;;;;4984025;28;20178;-72
2023/06/03 17:36:51;;;;;;;55.90;6.83;;;;;;;;;;4984103;28;20657;-72
2023/06/03 17:39:55;;;;;;;6.17;3.67;;;;;;;;;;4995954;28;20186;-71
2023/06/03 17:42:59;;;;;;;4.97;3.37;;;;;;;;;;4996005;28;20577;-72
2023/06/03 17:46:03;;;;;;;8.53;4.40;;;;;;;;;;4996535;28;20178;-72
2023/06/03 17:49:07;;;;;;;6.13;3.70;;;;;;;;;;4995940;28;20186;-70
2023/06/03 17:52:11;;;;;;;8.17;4.00;;;;;;;;;;4984107;28;20209;-71
2023/06/03 17:55:15;;;;;;;7.40;3.70;;;;;;;;;;4995820;28;20209;-71
2023/06/03 17:58:20;;;;;;;6.10;4.20;;;;;;;;;;4983621;28;20534;-71
2023/06/03 18:01:24;;;;;;;7.13;4.00;;;;;;;;;;4983201;28;20225;-71
2023/06/03 18:04:28;;;;;;;10.77;3.97;;;;;;;;;;4995468;28;20518;-71
2023/06/03 18:07:32;;;;;;;12.23;4.23;;;;;;;;;;4995147;28;20210;-72
2023/06/03 18:10:36;;;;;;;8.23;3.57;;;;;;;;;;4983019;28;20214;-71
2023/06/03 18:13:40;;;;;;;5.07;3.30;;;;;;;;;;4995612;28;20510;-73
2023/06/03 18:16:45;;;;;;;6.77;3.73;;;;;;;;;;4995614;28;20190;-72
2023/06/03 18:19:50;;;;;;;6.93;4.20;;;;;;;;;;4994902;28;20186;-73
2023/06/03 18:22:54;;;;;;;6.00;4.30;;;;;;;;;;4995616;28;20214;-71
2023/06/03 18:25:58;;;;;;;6.40;3.60;;;;;;;;;;4971539;28;20182;-72
2023/06/03 18:29:03;;;;;;;4.93;3.60;;;;;;;;;;4994966;28;20183;-72
2023/06/03 18:32:07;;;;;;;7.80;3.67;;;;;;;;;;4994905;28;20209;-71
2023/06/03 18:35:11;;;;;;;5.00;3.80;;;;;;;;;;4994988;28;20202;-72
2023/06/03 18:38:15;;;;;;;6.30;3.90;;;;;;;;;;4994800;28;20198;-72